Time;durP1;ratioP1;P1;durP2;ratioP2;P2;SDS_P1;SDS_P2;PMS_P1;PMS_P2;Temp;Humidity;BMP_temperature;BMP_pressure;BME280_temperature;BME280_humidity;BME280_pressure;Samples;Min_cycle;Max_cycle;Signal;HPM_P1;HPM_P2
2021/11/16 00:01:40;;;;;;;39.53;23.55;;;;;;;;;;5094113;28;20024;-75
2021/11/16 00:04:07;;;;;;;35.70;22.55;;;;;;;;;;5093830;28;20034;-75
2021/11/16 00:06:34;;;;;;;31.75;20.83;;;;;;;;;;5093486;28;20103;-74
2021/11/16 00:09:02;;;;;;;30.85;18.35;;;;;;;;;;5093943;28;20476;-75
2021/11/16 00:11:28;;;;;;;33.90;20.35;;;;;;;;;;5093420;28;20035;-75
2021/11/16 00:13:54;;;;;;;28.45;18.35;;;;;;;;;;5093814;28;20095;-75
2021/11/16 00:16:21;;;;;;;32.35;21.50;;;;;;;;;;5093057;28;20024;-75
2021/11/16 00:18:55;;;;;;;33.60;21.90;;;;;;;;;;5093175;28;20111;-75
2021/11/16 00:21:24;;;;;;;41.10;23.45;;;;;;;;;;5093769;28;20020;-75
2021/11/16 00:23:54;;;;;;;36.72;23.27;;;;;;;;;;5093594;28;20344;-75
2021/11/16 00:26:20;;;;;;;34.42;22.20;;;;;;;;;;5093409;28;20076;-75
2021/11/16 00:28:46;;;;;;;36.00;21.23;;;;;;;;;;5092300;28;20024;-75
2021/11/16 00:31:14;;;;;;;40.53;23.48;;;;;;;;;;5093400;28;20376;-75
2021/11/16 00:33:40;;;;;;;34.42;21.90;;;;;;;;;;5093136;28;20028;-75
2021/11/16 00:36:07;;;;;;;39.13;23.38;;;;;;;;;;5093497;28;20044;-75
2021/11/16 00:38:35;;;;;;;36.22;22.48;;;;;;;;;;5093264;28;20117;-75
2021/11/16 00:41:01;;;;;;;40.30;24.92;;;;;;;;;;5093081;28;20031;-75
2021/11/16 00:43:27;;;;;;;43.88;24.65;;;;;;;;;;5093358;28;20020;-75
2021/11/16 00:45:54;;;;;;;45.28;25.38;;;;;;;;;;5093511;28;20025;-75
2021/11/16 00:48:23;;;;;;;43.00;26.55;;;;;;;;;;5093417;28;20081;-76
2021/11/16 00:50:52;;;;;;;46.85;25.90;;;;;;;;;;5093377;28;20017;-75
2021/11/16 00:53:22;;;;;;;39.67;23.98;;;;;;;;;;5091610;28;20052;-75
2021/11/16 00:55:48;;;;;;;43.08;26.85;;;;;;;;;;5092034;28;20527;-75
2021/11/16 00:58:15;;;;;;;36.22;21.90;;;;;;;;;;5092933;28;20113;-76
2021/11/16 01:00:42;;;;;;;34.63;20.05;;;;;;;;;;5092832;28;20020;-75
2021/11/16 01:03:09;;;;;;;28.48;17.83;;;;;;;;;;5093422;28;20024;-75
2021/11/16 01:05:35;;;;;;;35.13;19.52;;;;;;;;;;5093093;28;20048;-75
2021/11/16 01:08:01;;;;;;;26.00;17.45;;;;;;;;;;5091637;28;20032;-75
2021/11/16 01:10:28;;;;;;;26.23;15.38;;;;;;;;;;5093203;28;20028;-75
2021/11/16 01:12:54;;;;;;;22.85;14.45;;;;;;;;;;5093352;28;20031;-75
2021/11/16 01:15:21;;;;;;;19.88;12.85;;;;;;;;;;5092783;28;20024;-76
2021/11/16 01:17:48;;;;;;;21.88;13.65;;;;;;;;;;5091731;28;20125;-76
2021/11/16 01:20:15;;;;;;;19.05;12.30;;;;;;;;;;5096346;28;20043;-75
2021/11/16 01:22:42;;;;;;;25.88;15.07;;;;;;;;;;5096797;28;20021;-74
2021/11/16 01:25:11;;;;;;;22.35;14.45;;;;;;;;;;5097074;28;20388;-75
2021/11/16 01:27:37;;;;;;;26.23;14.85;;;;;;;;;;5097056;28;20097;-74
2021/11/16 01:30:12;;;;;;;22.67;14.27;;;;;;;;;;5096688;28;20480;-75
2021/11/16 01:32:48;;;;;;;23.10;13.88;;;;;;;;;;5096960;28;20032;-74
2021/11/16 01:35:15;;;;;;;27.88;14.27;;;;;;;;;;5095228;28;20361;-75
2021/11/16 01:37:41;;;;;;;22.83;14.45;;;;;;;;;;5095524;28;20444;-74
2021/11/16 01:40:10;;;;;;;23.42;14.85;;;;;;;;;;5095495;28;20027;-74
2021/11/16 01:42:37;;;;;;;23.50;13.00;;;;;;;;;;5095436;28;20384;-74
2021/11/16 01:45:04;;;;;;;25.13;14.82;;;;;;;;;;5096483;28;20095;-75
2021/11/16 01:47:30;;;;;;;26.75;14.43;;;;;;;;;;5096727;28;20549;-75
2021/11/16 01:49:57;;;;;;;21.80;13.70;;;;;;;;;;5095876;28;20016;-74
2021/11/16 01:52:23;;;;;;;23.83;14.40;;;;;;;;;;5096574;28;20028;-74
2021/11/16 01:54:49;;;;;;;27.77;16.00;;;;;;;;;;5096562;28;20525;-74
2021/11/16 01:57:16;;;;;;;25.77;14.75;;;;;;;;;;5094633;28;20124;-75
2021/11/16 01:59:42;;;;;;;21.88;14.05;;;;;;;;;;5096481;28;20028;-74
2021/11/16 02:02:09;;;;;;;24.27;14.73;;;;;;;;;;5096285;28;20039;-75
2021/11/16 02:04:35;;;;;;;26.60;14.95;;;;;;;;;;5096020;28;20028;-75
2021/11/16 02:07:01;;;;;;;29.48;14.60;;;;;;;;;;5096333;28;20586;-75
2021/11/16 02:09:28;;;;;;;19.92;13.68;;;;;;;;;;5095709;28;20028;-75
2021/11/16 02:11:54;;;;;;;22.30;13.15;;;;;;;;;;5094432;28;20031;-74
2021/11/16 02:14:21;;;;;;;22.88;13.68;;;;;;;;;;5094866;28;20484;-74
2021/11/16 02:16:48;;;;;;;27.58;13.85;;;;;;;;;;5096097;28;20383;-74
2021/11/16 02:19:16;;;;;;;22.10;13.98;;;;;;;;;;5095766;28;20036;-75
2021/11/16 02:21:43;;;;;;;26.45;15.68;;;;;;;;;;5096064;28;20536;-75
2021/11/16 02:24:10;;;;;;;26.77;15.23;;;;;;;;;;5095938;28;20031;-75
2021/11/16 02:26:37;;;;;;;25.13;15.52;;;;;;;;;;5095980;28;20016;-74
2021/11/16 02:29:04;;;;;;;23.15;14.55;;;;;;;;;;5095861;28;20048;-74
2021/11/16 02:31:30;;;;;;;26.45;15.30;;;;;;;;;;5094999;28;20020;-74
2021/11/16 02:33:57;;;;;;;22.95;13.93;;;;;;;;;;5096022;28;20027;-74
2021/11/16 02:36:29;;;;;;;21.92;13.75;;;;;;;;;;5095749;28;20035;-75
2021/11/16 02:38:55;;;;;;;21.73;13.40;;;;;;;;;;5095272;28;20032;-75
2021/11/16 02:41:23;;;;;;;21.42;14.20;;;;;;;;;;5095582;28;20047;-75
2021/11/16 02:43:49;;;;;;;21.65;13.25;;;;;;;;;;5095724;28;20020;-74
2021/11/16 02:46:15;;;;;;;23.00;13.93;;;;;;;;;;5095440;28;20395;-75
2021/11/16 02:48:41;;;;;;;21.00;14.45;;;;;;;;;;5095392;28;20094;-74
2021/11/16 02:51:10;;;;;;;22.45;14.25;;;;;;;;;;5095466;28;20039;-74
2021/11/16 02:53:38;;;;;;;22.20;13.90;;;;;;;;;;5095069;28;20062;-72
2021/11/16 02:56:05;;;;;;;23.40;13.98;;;;;;;;;;5095548;28;20476;-73
2021/11/16 02:58:31;;;;;;;23.65;14.82;;;;;;;;;;5095128;28;20052;-75
2021/11/16 03:01:02;;;;;;;23.77;14.73;;;;;;;;;;5094862;28;20023;-73
2021/11/16 03:03:29;;;;;;;22.77;15.45;;;;;;;;;;5095254;28;20383;-73
2021/11/16 03:05:55;;;;;;;21.55;14.65;;;;;;;;;;5095299;28;20111;-73
2021/11/16 03:08:24;;;;;;;27.55;15.32;;;;;;;;;;5093432;28;20017;-73
2021/11/16 03:10:56;;;;;;;26.05;14.93;;;;;;;;;;5095263;28;20016;-73
2021/11/16 03:13:22;;;;;;;24.10;16.05;;;;;;;;;;5094676;28;20024;-73
2021/11/16 03:15:49;;;;;;;27.45;17.75;;;;;;;;;;5093250;28;20483;-72
2021/11/16 03:18:16;;;;;;;25.25;16.70;;;;;;;;;;5094786;28;20044;-74
2021/11/16 03:20:43;;;;;;;28.13;16.13;;;;;;;;;;5094873;28;20103;-73
2021/11/16 03:23:18;;;;;;;27.35;16.65;;;;;;;;;;5094866;28;20028;-72
2021/11/16 03:25:51;;;;;;;27.38;16.55;;;;;;;;;;5094723;28;20095;-72
2021/11/16 03:28:18;;;;;;;23.20;14.63;;;;;;;;;;5094558;28;20024;-73
2021/11/16 03:30:48;;;;;;;24.90;15.43;;;;;;;;;;5094601;28;20028;-72
2021/11/16 03:33:15;;;;;;;23.52;14.50;;;;;;;;;;5094576;28;20048;-72
2021/11/16 03:35:41;;;;;;;21.85;13.93;;;;;;;;;;5094315;28;20073;-72
2021/11/16 03:38:08;;;;;;;22.02;13.40;;;;;;;;;;5094423;28;20036;-73
2021/11/16 03:40:36;;;;;;;22.80;13.30;;;;;;;;;;5094835;28;20105;-73
2021/11/16 03:43:03;;;;;;;23.55;13.60;;;;;;;;;;5093314;28;20024;-73
2021/11/16 03:45:29;;;;;;;22.58;13.05;;;;;;;;;;5094390;28;20020;-73
2021/11/16 03:47:57;;;;;;;29.65;14.85;;;;;;;;;;5094321;28;20031;-73
2021/11/16 03:50:24;;;;;;;24.00;14.02;;;;;;;;;;5093959;28;20021;-73
2021/11/16 03:52:56;;;;;;;22.65;13.68;;;;;;;;;;5092936;28;20020;-72
2021/11/16 03:55:24;;;;;;;21.10;12.98;;;;;;;;;;5094242;28;20020;-73
2021/11/16 03:57:54;;;;;;;23.67;14.98;;;;;;;;;;5093513;28;20090;-73
2021/11/16 04:00:22;;;;;;;29.10;15.73;;;;;;;;;;5094034;28;20411;-73
2021/11/16 04:02:48;;;;;;;45.63;20.75;;;;;;;;;;5093944;28;20412;-73
2021/11/16 04:05:14;;;;;;;32.17;19.20;;;;;;;;;;5094040;28;20024;-73
2021/11/16 04:07:40;;;;;;;25.05;13.98;;;;;;;;;;5094211;28;20054;-73
2021/11/16 04:10:11;;;;;;;20.88;13.30;;;;;;;;;;5093855;28;20071;-72
2021/11/16 04:12:37;;;;;;;20.02;12.60;;;;;;;;;;5093976;28;20050;-73
2021/11/16 04:15:04;;;;;;;22.42;12.38;;;;;;;;;;5093864;28;20024;-73
2021/11/16 04:17:32;;;;;;;19.83;12.25;;;;;;;;;;5093387;28;20032;-72
2021/11/16 04:20:00;;;;;;;20.35;10.93;;;;;;;;;;5093787;28;20031;-73
2021/11/16 04:22:26;;;;;;;19.10;10.48;;;;;;;;;;5093080;28;20080;-73
2021/11/16 04:24:52;;;;;;;23.35;12.32;;;;;;;;;;5093402;28;20096;-73
2021/11/16 04:27:18;;;;;;;23.92;14.43;;;;;;;;;;5093933;28;20061;-73
2021/11/16 04:29:45;;;;;;;27.27;15.75;;;;;;;;;;5093798;28;20028;-73
2021/11/16 04:32:11;;;;;;;28.50;17.65;;;;;;;;;;5093188;28;20047;-73
2021/11/16 04:34:38;;;;;;;25.80;15.63;;;;;;;;;;5093565;28;20044;-73
2021/11/16 04:37:04;;;;;;;24.33;15.95;;;;;;;;;;5093479;28;20077;-73
2021/11/16 04:39:30;;;;;;;27.38;17.13;;;;;;;;;;5093181;28;20034;-73
2021/11/16 04:41:56;;;;;;;26.13;15.95;;;;;;;;;;5092084;28;20073;-74
2021/11/16 04:44:23;;;;;;;25.83;16.98;;;;;;;;;;5093513;28;20024;-74
2021/11/16 04:46:49;;;;;;;28.60;17.98;;;;;;;;;;5093085;28;20031;-74
2021/11/16 04:49:30;;;;;;;25.20;17.38;;;;;;;;;;5093521;28;20457;-74
2021/11/16 04:52:09;;;;;;;27.73;16.38;;;;;;;;;;5093016;28;20024;-73
2021/11/16 05:04:51;;;;;;;26.25;16.63;;;;;;;;;;5093584;28;20038;-74
2021/11/16 05:07:19;;;;;;;25.90;16.73;;;;;;;;;;5092907;28;20480;-73
2021/11/16 05:09:50;;;;;;;29.02;18.05;;;;;;;;;;5093095;28;20483;-73
2021/11/16 05:12:17;;;;;;;30.95;19.00;;;;;;;;;;5091833;28;20543;-75
2021/11/16 05:14:43;;;;;;;38.88;21.50;;;;;;;;;;5092585;28;20157;-74
2021/11/16 05:17:10;;;;;;;37.17;22.95;;;;;;;;;;5093108;28;20589;-73
2021/11/16 05:19:36;;;;;;;45.83;26.55;;;;;;;;;;5093132;28;20039;-75
2021/11/16 05:22:02;;;;;;;40.97;24.92;;;;;;;;;;5092699;28;20492;-73
2021/11/16 05:24:29;;;;;;;40.22;25.58;;;;;;;;;;5093515;28;20028;-73
2021/11/16 05:26:55;;;;;;;42.72;23.48;;;;;;;;;;5093209;28;20016;-73
2021/11/16 05:29:22;;;;;;;30.85;19.08;;;;;;;;;;5092554;28;20078;-73
2021/11/16 05:31:48;;;;;;;31.70;17.23;;;;;;;;;;5092837;28;20034;-74
2021/11/16 05:34:14;;;;;;;25.45;15.70;;;;;;;;;;5093309;28;20328;-73
2021/11/16 05:36:41;;;;;;;28.30;18.83;;;;;;;;;;5092546;28;20091;-72
2021/11/16 05:39:07;;;;;;;27.30;18.10;;;;;;;;;;5092974;28;20032;-73
2021/11/16 05:41:33;;;;;;;31.08;19.33;;;;;;;;;;5092605;28;20032;-74
2021/11/16 05:43:59;;;;;;;28.08;16.52;;;;;;;;;;5092886;28;20024;-73
2021/11/16 05:46:26;;;;;;;22.88;15.10;;;;;;;;;;5093075;28;20534;-74
2021/11/16 05:48:54;;;;;;;25.35;15.70;;;;;;;;;;5092591;28;20067;-74
2021/11/16 05:51:26;;;;;;;27.13;14.80;;;;;;;;;;5092891;28;20058;-74
2021/11/16 05:53:57;;;;;;;27.13;15.77;;;;;;;;;;5093538;28;20388;-73
2021/11/16 05:56:27;;;;;;;35.58;16.38;;;;;;;;;;5092856;28;20020;-73
2021/11/16 05:58:54;;;;;;;26.55;16.55;;;;;;;;;;5092611;28;20411;-74
2021/11/16 06:01:24;;;;;;;39.97;23.27;;;;;;;;;;5092883;28;20424;-73
2021/11/16 06:03:53;;;;;;;31.35;19.08;;;;;;;;;;5095792;28;20024;-73
2021/11/16 06:06:23;;;;;;;41.45;22.45;;;;;;;;;;5095656;28;20016;-73
2021/11/16 06:08:50;;;;;;;36.60;19.95;;;;;;;;;;5096643;28;20047;-74
2021/11/16 06:11:17;;;;;;;34.88;20.98;;;;;;;;;;5095825;28;20099;-73
2021/11/16 06:13:44;;;;;;;40.88;24.35;;;;;;;;;;5094877;28;20028;-74
2021/11/16 06:16:10;;;;;;;35.30;23.52;;;;;;;;;;5095735;28;20176;-74
2021/11/16 06:18:37;;;;;;;37.72;23.50;;;;;;;;;;5095485;28;20039;-74
2021/11/16 06:21:06;;;;;;;34.65;21.95;;;;;;;;;;5096480;28;20017;-72
2021/11/16 06:23:33;;;;;;;33.42;20.75;;;;;;;;;;5091177;28;20028;-74
2021/11/16 06:26:00;;;;;;;37.47;22.88;;;;;;;;;;5088481;28;20043;-74
2021/11/16 06:28:27;;;;;;;36.15;23.25;;;;;;;;;;5058007;28;20081;-74
2021/11/16 06:30:53;;;;;;;39.67;24.40;;;;;;;;;;5071502;28;20060;-72
2021/11/16 06:33:20;;;;;;;43.05;27.60;;;;;;;;;;5074070;28;20032;-72
2021/11/16 06:35:46;;;;;;;39.10;25.40;;;;;;;;;;5086492;28;20077;-72
2021/11/16 06:38:13;;;;;;;35.13;23.92;;;;;;;;;;5098658;28;20103;-72
2021/11/16 06:40:41;;;;;;;36.53;24.13;;;;;;;;;;5106178;28;20024;-72
2021/11/16 06:43:07;;;;;;;36.55;23.67;;;;;;;;;;5108138;28;20534;-69
2021/11/16 06:45:33;;;;;;;40.28;27.17;;;;;;;;;;5097924;28;20027;-68
2021/11/16 06:47:59;;;;;;;46.33;29.38;;;;;;;;;;5093944;28;20028;-69
2021/11/16 06:50:25;;;;;;;45.92;30.77;;;;;;;;;;5093111;28;20023;-71
2021/11/16 06:52:52;;;;;;;44.83;30.80;;;;;;;;;;5093290;28;20475;-70
2021/11/16 06:55:18;;;;;;;52.95;35.17;;;;;;;;;;5093314;28;20072;-70
2021/11/16 06:57:47;;;;;;;59.78;38.13;;;;;;;;;;5091282;28;20148;-69
2021/11/16 07:00:13;;;;;;;51.25;31.92;;;;;;;;;;5093633;28;20054;-69
2021/11/16 07:02:40;;;;;;;44.53;30.13;;;;;;;;;;5093515;28;20375;-69
2021/11/16 07:05:12;;;;;;;44.08;25.55;;;;;;;;;;5092386;28;20024;-69
2021/11/16 07:07:48;;;;;;;45.93;28.53;;;;;;;;;;5092118;28;20055;-69
2021/11/16 07:10:17;;;;;;;32.78;18.98;;;;;;;;;;5094629;28;20260;-68
2021/11/16 07:12:44;;;;;;;28.50;16.15;;;;;;;;;;5090837;28;20028;-69
2021/11/16 07:15:10;;;;;;;28.63;17.95;;;;;;;;;;5094961;28;20031;-69
2021/11/16 07:17:37;;;;;;;15.90;11.93;;;;;;;;;;5095009;28;20039;-69
2021/11/16 07:20:04;;;;;;;19.80;13.13;;;;;;;;;;5083454;28;20024;-69
2021/11/16 07:22:32;;;;;;;28.27;14.43;;;;;;;;;;5066157;28;20024;-69
2021/11/16 07:25:05;;;;;;;30.48;19.50;;;;;;;;;;5070687;28;20032;-70
2021/11/16 07:27:36;;;;;;;33.25;18.30;;;;;;;;;;5071661;28;20028;-70
2021/11/16 07:30:03;;;;;;;28.73;16.80;;;;;;;;;;5071820;28;20028;-69
2021/11/16 07:32:34;;;;;;;33.83;17.70;;;;;;;;;;5080497;28;20376;-70
2021/11/16 07:35:02;;;;;;;34.38;16.48;;;;;;;;;;5084512;28;20020;-69
2021/11/16 07:37:30;;;;;;;29.30;14.55;;;;;;;;;;5091716;28;20031;-70
2021/11/16 07:39:58;;;;;;;27.58;13.55;;;;;;;;;;5091912;28;20494;-69
2021/11/16 07:42:26;;;;;;;23.75;15.15;;;;;;;;;;5093007;28;20032;-69
2021/11/16 07:45:09;;;;;;;21.55;13.23;;;;;;;;;;5092625;28;20024;-70
2021/11/16 07:47:49;;;;;;;23.73;14.70;;;;;;;;;;5094017;28;20127;-69
2021/11/16 07:50:30;;;;;;;38.42;20.35;;;;;;;;;;5090962;28;20116;-69
2021/11/16 07:53:17;;;;;;;22.63;14.73;;;;;;;;;;5093101;28;20483;-69
2021/11/16 07:56:03;;;;;;;30.05;17.40;;;;;;;;;;5079440;28;20036;-69
2021/11/16 07:58:35;;;;;;;29.15;18.70;;;;;;;;;;5093484;28;20051;-69
2021/11/16 08:01:04;;;;;;;25.02;17.92;;;;;;;;;;5092297;28;20357;-69
2021/11/16 08:03:32;;;;;;;31.10;20.83;;;;;;;;;;5093012;28;20024;-69
2021/11/16 08:15:12;;;;;;;27.25;16.30;;;;;;;;;;5113272;27;20198;-69
2021/11/16 08:17:41;;;;;;;24.80;13.80;;;;;;;;;;5110419;28;20036;-70
2021/11/16 08:20:09;;;;;;;20.45;12.48;;;;;;;;;;5110784;28;20114;-70
2021/11/16 08:22:35;;;;;;;19.33;11.73;;;;;;;;;;5110678;28;20027;-71
2021/11/16 08:25:02;;;;;;;25.52;13.82;;;;;;;;;;5110161;28;20066;-70
2021/11/16 08:28:26;;;;;;;22.63;13.77;;;;;;;;;;5110293;27;20537;-69
2021/11/16 08:30:53;;;;;;;20.55;12.98;;;;;;;;;;5109253;28;20032;-69
2021/11/16 08:33:20;;;;;;;20.83;13.32;;;;;;;;;;5110521;28;20020;-70
2021/11/16 08:36:18;;;;;;;17.77;11.38;;;;;;;;;;5108573;27;20446;-70
2021/11/16 08:38:45;;;;;;;18.65;12.10;;;;;;;;;;5108216;28;20031;-70
2021/11/16 08:41:23;;;;;;;20.88;11.95;;;;;;;;;;5108642;28;20055;-69
2021/11/16 08:43:49;;;;;;;17.70;11.68;;;;;;;;;;5108762;28;20031;-71
2021/11/16 08:46:18;;;;;;;19.38;10.27;;;;;;;;;;5108098;28;20028;-71
2021/11/16 08:48:50;;;;;;;19.33;11.45;;;;;;;;;;5108719;28;20040;-72
2021/11/16 08:51:17;;;;;;;19.50;11.52;;;;;;;;;;5108031;28;20501;-72
2021/11/16 08:53:45;;;;;;;27.60;15.52;;;;;;;;;;5110444;28;20589;-71
2021/11/16 09:00:26;;;;;;;42.00;23.25;;;;;;;;;;5109369;27;20473;-73
2021/11/16 09:03:00;;;;;;;42.58;24.25;;;;;;;;;;5108269;28;20080;-72
2021/11/16 09:05:31;;;;;;;27.88;16.85;;;;;;;;;;5108443;28;20127;-72
2021/11/16 09:07:57;;;;;;;28.25;14.50;;;;;;;;;;5106470;28;20052;-72
2021/11/16 09:12:06;;;;;;;37.38;22.63;;;;;;;;;;5107998;27;20385;-70
2021/11/16 09:14:33;;;;;;;30.80;18.13;;;;;;;;;;5109041;28;20442;-71
2021/11/16 09:19:22;;;;;;;25.77;15.20;;;;;;;;;;5131013;27;20115;-69
2021/11/16 09:21:49;;;;;;;27.25;14.80;;;;;;;;;;5110422;28;20395;-71
2021/11/16 09:24:17;;;;;;;21.67;13.50;;;;;;;;;;5109016;28;20061;-71
2021/11/16 09:29:39;;;;;;;30.63;19.20;;;;;;;;;;5085377;28;20100;-71
2021/11/16 09:32:14;;;;;;;29.38;15.60;;;;;;;;;;5106015;28;20468;-71
2021/11/16 09:34:42;;;;;;;19.40;10.75;;;;;;;;;;5106561;28;20028;-69
2021/11/16 09:37:13;;;;;;;18.05;12.05;;;;;;;;;;5107283;28;20028;-70
2021/11/16 09:39:44;;;;;;;21.42;13.25;;;;;;;;;;5107594;28;20506;-70
2021/11/16 09:45:03;;;;;;;25.85;14.75;;;;;;;;;;5111052;27;20396;-70
2021/11/16 09:49:37;;;;;;;24.55;14.82;;;;;;;;;;5131540;27;20399;-70
2021/11/16 09:53:15;;;;;;;26.52;15.80;;;;;;;;;;5110188;27;20393;-69
2021/11/16 09:56:40;;;;;;;26.73;15.77;;;;;;;;;;5107951;27;20380;-70
2021/11/16 09:59:06;;;;;;;31.35;18.48;;;;;;;;;;5109401;28;20026;-70
2021/11/16 10:01:37;;;;;;;28.42;17.17;;;;;;;;;;5108389;28;20034;-71
2021/11/16 10:06:14;;;;;;;28.27;16.70;;;;;;;;;;5110594;27;20438;-71
2021/11/16 10:08:41;;;;;;;38.13;22.45;;;;;;;;;;5110369;28;20023;-70
2021/11/16 10:11:08;;;;;;;34.80;19.60;;;;;;;;;;5107786;28;20023;-71
2021/11/16 10:13:34;;;;;;;29.90;19.35;;;;;;;;;;5092373;28;20027;-70
2021/11/16 10:16:02;;;;;;;30.05;17.13;;;;;;;;;;5109649;28;20028;-71
2021/11/16 10:18:31;;;;;;;29.77;16.83;;;;;;;;;;5110210;28;20027;-70
2021/11/16 10:20:58;;;;;;;21.92;15.07;;;;;;;;;;5110240;28;20054;-71
2021/11/16 10:23:35;;;;;;;23.40;15.15;;;;;;;;;;5110147;28;20027;-71
2021/11/16 10:26:03;;;;;;;29.08;14.90;;;;;;;;;;5110248;28;20081;-71
2021/11/16 10:28:32;;;;;;;25.23;15.60;;;;;;;;;;5092194;28;20031;-70
2021/11/16 10:30:58;;;;;;;25.45;14.13;;;;;;;;;;5110412;28;20069;-68
2021/11/16 10:33:27;;;;;;;23.40;13.55;;;;;;;;;;5109993;28;20016;-69
2021/11/16 10:35:53;;;;;;;20.90;13.30;;;;;;;;;;5103493;28;20475;-69
2021/11/16 10:38:34;;;;;;;18.02;11.73;;;;;;;;;;5107112;27;20109;-68
2021/11/16 10:41:06;;;;;;;18.33;11.48;;;;;;;;;;5087352;28;20444;-68
2021/11/16 10:43:34;;;;;;;17.60;12.18;;;;;;;;;;5089807;28;20036;-68
2021/11/16 10:47:45;;;;;;;22.45;14.73;;;;;;;;;;5107011;27;20384;-69
2021/11/16 10:50:13;;;;;;;26.98;16.27;;;;;;;;;;5107134;28;20057;-69
2021/11/16 10:52:40;;;;;;;28.27;17.48;;;;;;;;;;5108969;28;20379;-68
2021/11/16 10:56:08;;;;;;;24.45;15.65;;;;;;;;;;5110446;27;20393;-69
2021/11/16 10:58:36;;;;;;;35.00;20.30;;;;;;;;;;5108915;28;20020;-69
2021/11/16 11:01:07;;;;;;;45.42;24.92;;;;;;;;;;5109635;28;20476;-70
2021/11/16 11:03:36;;;;;;;33.13;18.10;;;;;;;;;;5108719;28;20046;-69
2021/11/16 11:06:07;;;;;;;23.83;15.23;;;;;;;;;;5108191;28;20047;-71
2021/11/16 11:10:10;;;;;;;38.53;20.65;;;;;;;;;;5068387;28;20144;-69
2021/11/16 11:12:38;;;;;;;36.15;20.60;;;;;;;;;;5047700;28;20029;-69
2021/11/16 11:15:04;;;;;;;45.00;25.45;;;;;;;;;;5049126;28;20022;-68
2021/11/16 11:17:34;;;;;;;35.45;21.30;;;;;;;;;;5049859;28;20385;-70
2021/11/16 11:22:17;;;;;;;35.15;21.85;;;;;;;;;;5110523;27;20392;-69
2021/11/16 11:24:49;;;;;;;35.72;22.58;;;;;;;;;;5106151;28;20135;-69
2021/11/16 11:29:52;;;;;;;30.63;18.02;;;;;;;;;;5108504;28;20032;-68
2021/11/16 11:32:23;;;;;;;33.17;18.25;;;;;;;;;;5109730;28;20379;-68
2021/11/16 11:37:48;;;;;;;32.55;18.17;;;;;;;;;;5110131;27;20119;-69
2021/11/16 11:40:17;;;;;;;28.65;16.98;;;;;;;;;;5089587;28;20055;-69
2021/11/16 11:42:57;;;;;;;20.95;12.73;;;;;;;;;;5090430;28;20376;-69
2021/11/16 11:45:26;;;;;;;22.88;14.57;;;;;;;;;;5090209;28;20165;-68
2021/11/16 11:48:01;;;;;;;19.83;12.57;;;;;;;;;;5088236;28;20016;-69
2021/11/16 11:50:31;;;;;;;23.08;14.18;;;;;;;;;;5087723;28;20418;-68
2021/11/16 11:52:59;;;;;;;22.85;12.98;;;;;;;;;;5088099;28;20322;-68
2021/11/16 11:55:25;;;;;;;20.50;12.80;;;;;;;;;;5087753;28;20032;-70
2021/11/16 11:57:52;;;;;;;21.25;12.65;;;;;;;;;;5088639;28;20044;-70
2021/11/16 12:00:18;;;;;;;23.77;15.63;;;;;;;;;;5088851;28;20027;-70
2021/11/16 12:02:45;;;;;;;22.23;14.30;;;;;;;;;;5088216;28;20108;-68
2021/11/16 12:07:12;;;;;;;49.78;27.27;;;;;;;;;;5108727;27;20393;-70
2021/11/16 12:09:38;;;;;;;55.53;28.55;;;;;;;;;;5108579;28;20038;-70
2021/11/16 12:12:05;;;;;;;99.35;49.60;;;;;;;;;;5108751;28;20027;-69
2021/11/16 12:14:45;;;;;;;55.15;30.50;;;;;;;;;;5108745;28;20445;-70
2021/11/16 12:17:13;;;;;;;60.60;31.63;;;;;;;;;;5109525;28;20545;-70
2021/11/16 12:19:44;;;;;;;48.60;26.20;;;;;;;;;;5110407;28;20024;-69
2021/11/16 12:23:07;;;;;;;45.47;26.70;;;;;;;;;;5110104;27;20389;-69
2021/11/16 12:25:33;;;;;;;92.05;46.30;;;;;;;;;;5096181;28;20036;-69
2021/11/16 12:29:55;;;;;;;47.67;27.80;;;;;;;;;;5107217;27;20384;-72
2021/11/16 12:32:26;;;;;;;30.67;19.20;;;;;;;;;;5108918;28;20059;-73
2021/11/16 12:35:26;;;;;;;32.95;18.52;;;;;;;;;;5108436;27;20392;-74
2021/11/16 12:39:15;;;;;;;28.73;17.55;;;;;;;;;;5110251;27;20896;-71
2021/11/16 12:41:43;;;;;;;33.30;20.45;;;;;;;;;;5111057;28;20032;-71
2021/11/16 12:44:10;;;;;;;52.65;30.33;;;;;;;;;;5109714;28;20090;-72
2021/11/16 12:46:39;;;;;;;58.78;32.70;;;;;;;;;;5108289;28;20020;-72
2021/11/16 12:49:07;;;;;;;43.75;24.60;;;;;;;;;;5108801;28;20107;-72
2021/11/16 12:51:34;;;;;;;39.42;24.38;;;;;;;;;;5108540;28;20020;-72
2021/11/16 12:54:19;;;;;;;34.80;22.90;;;;;;;;;;5109329;28;20111;-72
2021/11/16 13:00:36;;;;;;;27.02;18.90;;;;;;;;;;5110756;27;20388;-73
2021/11/16 13:05:26;;;;;;;29.02;15.82;;;;;;;;;;5110662;27;20766;-73
2021/11/16 13:07:54;;;;;;;21.60;13.57;;;;;;;;;;5110701;28;20031;-72
2021/11/16 13:10:22;;;;;;;24.70;14.32;;;;;;;;;;5111408;28;20020;-72
2021/11/16 13:12:50;;;;;;;23.98;14.30;;;;;;;;;;5109162;28;20076;-71
2021/11/16 13:15:24;;;;;;;22.00;13.90;;;;;;;;;;5106864;28;20107;-73
2021/11/16 13:19:21;;;;;;;22.38;15.20;;;;;;;;;;5108511;27;20396;-74
2021/11/16 13:24:01;;;;;;;23.27;14.52;;;;;;;;;;5110487;27;20393;-72
2021/11/16 13:32:38;;;;;;;32.65;20.52;;;;;;;;;;5108731;27;20492;-72
2021/11/16 13:37:48;;;;;;;28.38;17.98;;;;;;;;;;5110565;27;20399;-72
2021/11/16 13:40:22;;;;;;;24.98;15.73;;;;;;;;;;5109976;28;20553;-72
2021/11/16 13:42:50;;;;;;;27.27;16.63;;;;;;;;;;5111341;28;20460;-72
2021/11/16 13:45:17;;;;;;;29.75;18.15;;;;;;;;;;5108681;28;20027;-73
2021/11/16 13:47:47;;;;;;;36.90;23.00;;;;;;;;;;5108524;28;20367;-73
2021/11/16 13:50:20;;;;;;;31.92;19.30;;;;;;;;;;5107872;28;20020;-73
2021/11/16 13:54:07;;;;;;;29.65;16.35;;;;;;;;;;5109350;27;20389;-73
2021/11/16 13:56:34;;;;;;;29.05;18.02;;;;;;;;;;5110847;28;20040;-73
2021/11/16 14:00:58;;;;;;;25.48;14.35;;;;;;;;;;5151838;27;20439;-73
2021/11/16 14:04:38;;;;;;;33.10;18.13;;;;;;;;;;5110939;27;20904;-73
2021/11/16 14:07:25;;;;;;;52.50;25.63;;;;;;;;;;5151982;27;20386;-72
2021/11/16 14:10:09;;;;;;;53.78;28.98;;;;;;;;;;5151693;27;20027;-73
2021/11/16 14:16:35;;;;;;;41.03;23.52;;;;;;;;;;5110598;27;20389;-72
2021/11/16 14:22:37;;;;;;;39.80;23.15;;;;;;;;;;5110439;27;20404;-73
2021/11/16 14:25:14;;;;;;;44.72;25.92;;;;;;;;;;5110837;28;20024;-72
2021/11/16 14:27:41;;;;;;;65.53;33.35;;;;;;;;;;5110993;28;20439;-72
2021/11/16 14:30:59;;;;;;;75.78;36.72;;;;;;;;;;5110324;27;20401;-72
2021/11/16 14:35:15;;;;;;;54.30;28.92;;;;;;;;;;5110039;27;20380;-72
2021/11/16 14:37:49;;;;;;;59.47;31.80;;;;;;;;;;5109379;28;20487;-73
2021/11/16 14:42:06;;;;;;;62.13;32.78;;;;;;;;;;5111810;27;20384;-73
2021/11/16 14:44:34;;;;;;;59.97;33.13;;;;;;;;;;5110673;28;20035;-73
2021/11/16 14:47:02;;;;;;;58.25;35.45;;;;;;;;;;5110967;28;20095;-72
2021/11/16 14:50:07;;;;;;;88.38;48.10;;;;;;;;;;5110929;28;20036;-71
2021/11/16 14:54:40;;;;;;;54.20;30.55;;;;;;;;;;5111762;27;20389;-71
2021/11/16 14:57:06;;;;;;;73.13;41.45;;;;;;;;;;5110631;28;20380;-72
2021/11/16 14:59:33;;;;;;;195.45;106.72;;;;;;;;;;5110923;28;20054;-72
2021/11/16 15:03:29;;;;;;;102.40;58.83;;;;;;;;;;5111795;27;20397;-73
2021/11/16 15:07:18;;;;;;;92.22;54.20;;;;;;;;;;5091414;27;20398;-73
2021/11/16 15:10:00;;;;;;;102.72;59.92;;;;;;;;;;5111567;27;20389;-73
2021/11/16 15:12:27;;;;;;;119.65;72.13;;;;;;;;;;5110615;28;20040;-73
2021/11/16 15:14:54;;;;;;;74.97;49.80;;;;;;;;;;5111495;28;20024;-73
2021/11/16 15:21:55;;;;;;;79.53;55.20;;;;;;;;;;5111331;27;20450;-73
2021/11/16 15:28:07;;;;;;;71.68;47.55;;;;;;;;;;5111605;27;20404;-71
2021/11/16 15:30:35;;;;;;;84.32;55.35;;;;;;;;;;5110949;28;20027;-72
2021/11/16 15:33:01;;;;;;;87.78;59.45;;;;;;;;;;5110821;28;20429;-72
2021/11/16 15:36:01;;;;;;;104.38;67.97;;;;;;;;;;5070903;28;20771;-72
2021/11/16 15:39:15;;;;;;;170.70;99.97;;;;;;;;;;5111324;27;20389;-72
2021/11/16 15:41:46;;;;;;;274.35;148.25;;;;;;;;;;5110857;28;20024;-73
2021/11/16 15:47:07;;;;;;;300.77;152.82;;;;;;;;;;5110595;28;20480;-73
2021/11/16 15:57:36;;;;;;;210.95;122.97;;;;;;;;;;5110916;28;20066;-72
2021/11/16 16:00:11;;;;;;;183.98;106.40;;;;;;;;;;5110706;28;20031;-72
2021/11/16 16:02:37;;;;;;;176.10;106.93;;;;;;;;;;5108713;28;20107;-72
2021/11/16 16:05:13;;;;;;;159.95;95.50;;;;;;;;;;5110171;28;20028;-71
2021/11/16 16:07:41;;;;;;;120.05;76.07;;;;;;;;;;5109919;28;20094;-72
2021/11/16 16:10:07;;;;;;;116.53;73.80;;;;;;;;;;5110430;28;20081;-72
2021/11/16 16:12:33;;;;;;;77.40;49.83;;;;;;;;;;5110259;28;20016;-73
2021/11/16 16:15:00;;;;;;;99.88;64.57;;;;;;;;;;5110033;28;20495;-71
2021/11/16 16:17:32;;;;;;;99.97;60.97;;;;;;;;;;5110171;28;20444;-73
2021/11/16 16:20:04;;;;;;;106.07;61.22;;;;;;;;;;5110262;28;20024;-73
2021/11/16 16:22:40;;;;;;;113.60;72.38;;;;;;;;;;5100102;28;20422;-72
2021/11/16 16:25:07;;;;;;;113.85;73.95;;;;;;;;;;5109361;28;20142;-72